sensor_id;sensor_type;location;lat;lon;timestamp;P1;durP1;ratioP1;P2;durP2;ratioP2
21315;SDS011;10817;55.820;13.030;2023-11-19T00:08:15;12.25;;;6.03;;
21315;SDS011;10817;55.820;13.030;2023-11-19T00:10:42;8.52;;;5.65;;
21315;SDS011;10817;55.820;13.030;2023-11-19T00:13:11;8.43;;;5.88;;
21315;SDS011;10817;55.820;13.030;2023-11-19T00:15:38;9.30;;;5.60;;
21315;SDS011;10817;55.820;13.030;2023-11-19T00:18:06;7.40;;;5.07;;
21315;SDS011;10817;55.820;13.030;2023-11-19T00:20:33;9.85;;;5.93;;
21315;SDS011;10817;55.820;13.030;2023-11-19T00:23:00;8.20;;;5.40;;
21315;SDS011;10817;55.820;13.030;2023-11-19T00:25:29;8.82;;;5.40;;
21315;SDS011;10817;55.820;13.030;2023-11-19T00:27:56;8.52;;;5.70;;
21315;SDS011;10817;55.820;13.030;2023-11-19T00:33:38;7.55;;;5.53;;
21315;SDS011;10817;55.820;13.030;2023-11-19T00:36:06;7.32;;;5.93;;
21315;SDS011;10817;55.820;13.030;2023-11-19T00:38:34;17.77;;;5.78;;
21315;SDS011;10817;55.820;13.030;2023-11-19T00:41:02;7.43;;;5.32;;
21315;SDS011;10817;55.820;13.030;2023-11-19T00:43:29;8.25;;;5.78;;
21315;SDS011;10817;55.820;13.030;2023-11-19T00:45:56;8.57;;;5.90;;
21315;SDS011;10817;55.820;13.030;2023-11-19T00:48:23;7.47;;;5.35;;
21315;SDS011;10817;55.820;13.030;2023-11-19T00:50:50;7.03;;;5.72;;
21315;SDS011;10817;55.820;13.030;2023-11-19T00:53:17;6.80;;;5.30;;
21315;SDS011;10817;55.820;13.030;2023-11-19T00:55:43;12.93;;;5.35;;
21315;SDS011;10817;55.820;13.030;2023-11-19T00:58:12;8.07;;;5.45;;
21315;SDS011;10817;55.820;13.030;2023-11-19T01:00:39;7.70;;;5.60;;
21315;SDS011;10817;55.820;13.030;2023-11-19T01:03:06;8.15;;;5.32;;
21315;SDS011;10817;55.820;13.030;2023-11-19T01:05:33;7.03;;;4.90;;
21315;SDS011;10817;55.820;13.030;2023-11-19T01:08:04;9.40;;;6.45;;
21315;SDS011;10817;55.820;13.030;2023-11-19T01:10:40;8.52;;;5.60;;
21315;SDS011;10817;55.820;13.030;2023-11-19T01:13:08;7.20;;;5.43;;
21315;SDS011;10817;55.820;13.030;2023-11-19T01:15:38;7.75;;;5.22;;
21315;SDS011;10817;55.820;13.030;2023-11-19T01:18:07;7.25;;;5.30;;
21315;SDS011;10817;55.820;13.030;2023-11-19T01:20:35;7.60;;;5.40;;
21315;SDS011;10817;55.820;13.030;2023-11-19T01:23:11;7.88;;;5.43;;
21315;SDS011;10817;55.820;13.030;2023-11-19T01:25:39;8.98;;;5.32;;
21315;SDS011;10817;55.820;13.030;2023-11-19T01:28:06;5.75;;;4.32;;
21315;SDS011;10817;55.820;13.030;2023-11-19T01:30:33;5.47;;;4.40;;
21315;SDS011;10817;55.820;13.030;2023-11-19T01:33:04;6.68;;;4.93;;
21315;SDS011;10817;55.820;13.030;2023-11-19T01:35:32;5.25;;;3.88;;
21315;SDS011;10817;55.820;13.030;2023-11-19T01:38:00;7.32;;;4.57;;
21315;SDS011;10817;55.820;13.030;2023-11-19T01:40:27;5.15;;;4.13;;
21315;SDS011;10817;55.820;13.030;2023-11-19T01:42:54;6.20;;;4.25;;
21315;SDS011;10817;55.820;13.030;2023-11-19T01:45:22;9.50;;;4.07;;
21315;SDS011;10817;55.820;13.030;2023-11-19T01:47:54;5.72;;;4.25;;
21315;SDS011;10817;55.820;13.030;2023-11-19T01:50:23;6.40;;;4.05;;
21315;SDS011;10817;55.820;13.030;2023-11-19T01:52:50;7.30;;;3.85;;
21315;SDS011;10817;55.820;13.030;2023-11-19T01:55:19;8.25;;;3.70;;
21315;SDS011;10817;55.820;13.030;2023-11-19T01:57:47;4.60;;;3.50;;
21315;SDS011;10817;55.820;13.030;2023-11-19T02:00:20;4.80;;;3.60;;
21315;SDS011;10817;55.820;13.030;2023-11-19T02:02:56;5.30;;;3.88;;
21315;SDS011;10817;55.820;13.030;2023-11-19T02:05:35;6.28;;;4.07;;
21315;SDS011;10817;55.820;13.030;2023-11-19T02:08:18;5.03;;;3.90;;
21315;SDS011;10817;55.820;13.030;2023-11-19T02:11:06;5.68;;;3.78;;
21315;SDS011;10817;55.820;13.030;2023-11-19T02:13:33;5.53;;;3.85;;
21315;SDS011;10817;55.820;13.030;2023-11-19T02:16:03;7.47;;;4.00;;
21315;SDS011;10817;55.820;13.030;2023-11-19T02:18:32;6.50;;;4.40;;
21315;SDS011;10817;55.820;13.030;2023-11-19T02:21:00;6.70;;;4.03;;
21315;SDS011;10817;55.820;13.030;2023-11-19T02:23:27;5.78;;;4.05;;
21315;SDS011;10817;55.820;13.030;2023-11-19T02:26:00;5.68;;;4.13;;
21315;SDS011;10817;55.820;13.030;2023-11-19T02:28:31;6.30;;;3.80;;
21315;SDS011;10817;55.820;13.030;2023-11-19T02:30:59;7.25;;;4.80;;
21315;SDS011;10817;55.820;13.030;2023-11-19T02:33:26;6.03;;;4.20;;
21315;SDS011;10817;55.820;13.030;2023-11-19T02:35:54;11.98;;;4.80;;
21315;SDS011;10817;55.820;13.030;2023-11-19T02:38:21;7.00;;;4.30;;
21315;SDS011;10817;55.820;13.030;2023-11-19T02:40:48;7.43;;;5.15;;
21315;SDS011;10817;55.820;13.030;2023-11-19T02:43:20;5.93;;;4.18;;
21315;SDS011;10817;55.820;13.030;2023-11-19T02:45:50;7.22;;;4.70;;
21315;SDS011;10817;55.820;13.030;2023-11-19T02:48:20;6.25;;;4.43;;
21315;SDS011;10817;55.820;13.030;2023-11-19T02:50:47;6.70;;;4.57;;
21315;SDS011;10817;55.820;13.030;2023-11-19T02:53:14;6.63;;;5.03;;
21315;SDS011;10817;55.820;13.030;2023-11-19T02:55:43;6.38;;;4.35;;
21315;SDS011;10817;55.820;13.030;2023-11-19T02:58:15;8.60;;;5.00;;
21315;SDS011;10817;55.820;13.030;2023-11-19T03:00:48;7.32;;;4.75;;
21315;SDS011;10817;55.820;13.030;2023-11-19T03:03:40;8.32;;;5.03;;
21315;SDS011;10817;55.820;13.030;2023-11-19T03:06:10;10.65;;;5.63;;
21315;SDS011;10817;55.820;13.030;2023-11-19T03:08:40;7.57;;;5.10;;
21315;SDS011;10817;55.820;13.030;2023-11-19T03:11:06;11.35;;;5.72;;
21315;SDS011;10817;55.820;13.030;2023-11-19T03:13:34;13.63;;;6.00;;
21315;SDS011;10817;55.820;13.030;2023-11-19T03:16:03;11.32;;;6.40;;
21315;SDS011;10817;55.820;13.030;2023-11-19T03:18:30;9.75;;;5.70;;
21315;SDS011;10817;55.820;13.030;2023-11-19T03:20:58;11.20;;;6.00;;
21315;SDS011;10817;55.820;13.030;2023-11-19T03:23:25;12.30;;;5.97;;
21315;SDS011;10817;55.820;13.030;2023-11-19T03:25:53;13.43;;;6.43;;
21315;SDS011;10817;55.820;13.030;2023-11-19T03:28:20;13.23;;;6.07;;
21315;SDS011;10817;55.820;13.030;2023-11-19T03:30:47;11.15;;;5.78;;
21315;SDS011;10817;55.820;13.030;2023-11-19T03:33:16;12.43;;;6.80;;
21315;SDS011;10817;55.820;13.030;2023-11-19T03:35:43;11.07;;;6.05;;
21315;SDS011;10817;55.820;13.030;2023-11-19T03:38:11;12.00;;;6.28;;
21315;SDS011;10817;55.820;13.030;2023-11-19T03:40:38;13.80;;;7.43;;
21315;SDS011;10817;55.820;13.030;2023-11-19T03:43:06;13.57;;;6.60;;
21315;SDS011;10817;55.820;13.030;2023-11-19T03:45:34;11.90;;;6.57;;
21315;SDS011;10817;55.820;13.030;2023-11-19T03:48:02;12.07;;;6.85;;
21315;SDS011;10817;55.820;13.030;2023-11-19T03:50:31;13.52;;;7.15;;
21315;SDS011;10817;55.820;13.030;2023-11-19T03:52:58;16.13;;;7.88;;
21315;SDS011;10817;55.820;13.030;2023-11-19T03:55:25;18.58;;;8.20;;
21315;SDS011;10817;55.820;13.030;2023-11-19T03:57:52;14.30;;;7.95;;
21315;SDS011;10817;55.820;13.030;2023-11-19T04:00:19;16.02;;;8.20;;
21315;SDS011;10817;55.820;13.030;2023-11-19T04:02:46;15.20;;;7.22;;
21315;SDS011;10817;55.820;13.030;2023-11-19T04:05:13;19.13;;;9.00;;
21315;SDS011;10817;55.820;13.030;2023-11-19T04:07:42;20.75;;;9.05;;
21315;SDS011;10817;55.820;13.030;2023-11-19T04:10:09;19.38;;;9.25;;
21315;SDS011;10817;55.820;13.030;2023-11-19T04:12:35;18.83;;;9.65;;
21315;SDS011;10817;55.820;13.030;2023-11-19T04:15:03;20.85;;;9.68;;
21315;SDS011;10817;55.820;13.030;2023-11-19T04:17:31;19.63;;;9.30;;
21315;SDS011;10817;55.820;13.030;2023-11-19T04:19:58;19.65;;;10.75;;
21315;SDS011;10817;55.820;13.030;2023-11-19T04:22:25;15.88;;;9.85;;
21315;SDS011;10817;55.820;13.030;2023-11-19T04:24:53;17.85;;;10.60;;
21315;SDS011;10817;55.820;13.030;2023-11-19T04:27:21;23.05;;;10.40;;
21315;SDS011;10817;55.820;13.030;2023-11-19T04:29:49;21.88;;;10.18;;
21315;SDS011;10817;55.820;13.030;2023-11-19T04:32:18;19.42;;;10.45;;
21315;SDS011;10817;55.820;13.030;2023-11-19T04:34:48;19.65;;;10.70;;
21315;SDS011;10817;55.820;13.030;2023-11-19T04:37:15;19.27;;;9.80;;
21315;SDS011;10817;55.820;13.030;2023-11-19T04:39:43;19.02;;;10.32;;
21315;SDS011;10817;55.820;13.030;2023-11-19T04:42:12;19.75;;;9.82;;
21315;SDS011;10817;55.820;13.030;2023-11-19T04:44:42;18.60;;;9.98;;
21315;SDS011;10817;55.820;13.030;2023-11-19T04:47:09;18.30;;;10.65;;
21315;SDS011;10817;55.820;13.030;2023-11-19T04:49:39;16.65;;;9.65;;
21315;SDS011;10817;55.820;13.030;2023-11-19T04:52:11;19.38;;;10.57;;
21315;SDS011;10817;55.820;13.030;2023-11-19T04:54:40;16.92;;;9.43;;
21315;SDS011;10817;55.820;13.030;2023-11-19T04:57:08;17.17;;;9.15;;
21315;SDS011;10817;55.820;13.030;2023-11-19T04:59:37;17.25;;;9.85;;
21315;SDS011;10817;55.820;13.030;2023-11-19T05:02:04;20.10;;;9.93;;
21315;SDS011;10817;55.820;13.030;2023-11-19T05:04:31;17.35;;;9.65;;
21315;SDS011;10817;55.820;13.030;2023-11-19T05:06:58;21.08;;;10.40;;
21315;SDS011;10817;55.820;13.030;2023-11-19T05:09:25;19.10;;;10.20;;
21315;SDS011;10817;55.820;13.030;2023-11-19T05:11:52;15.93;;;9.82;;
21315;SDS011;10817;55.820;13.030;2023-11-19T05:14:19;17.08;;;10.65;;
21315;SDS011;10817;55.820;13.030;2023-11-19T05:16:48;16.65;;;9.30;;
21315;SDS011;10817;55.820;13.030;2023-11-19T05:19:15;18.55;;;10.10;;
21315;SDS011;10817;55.820;13.030;2023-11-19T05:21:42;14.27;;;9.27;;
21315;SDS011;10817;55.820;13.030;2023-11-19T05:24:09;14.57;;;8.88;;
21315;SDS011;10817;55.820;13.030;2023-11-19T05:26:40;21.20;;;10.10;;
21315;SDS011;10817;55.820;13.030;2023-11-19T05:29:06;13.32;;;8.43;;
21315;SDS011;10817;55.820;13.030;2023-11-19T05:31:33;14.02;;;8.93;;
21315;SDS011;10817;55.820;13.030;2023-11-19T05:34:03;18.45;;;9.63;;
21315;SDS011;10817;55.820;13.030;2023-11-19T05:36:31;16.75;;;9.50;;
21315;SDS011;10817;55.820;13.030;2023-11-19T05:39:00;20.40;;;10.10;;
21315;SDS011;10817;55.820;13.030;2023-11-19T05:41:28;21.42;;;10.27;;
21315;SDS011;10817;55.820;13.030;2023-11-19T05:43:55;17.88;;;11.05;;
21315;SDS011;10817;55.820;13.030;2023-11-19T05:46:22;16.00;;;10.13;;
21315;SDS011;10817;55.820;13.030;2023-11-19T05:48:50;14.52;;;9.95;;
21315;SDS011;10817;55.820;13.030;2023-11-19T05:51:19;20.08;;;10.45;;
21315;SDS011;10817;55.820;13.030;2023-11-19T05:53:45;22.90;;;11.98;;
21315;SDS011;10817;55.820;13.030;2023-11-19T05:56:12;18.55;;;11.20;;
21315;SDS011;10817;55.820;13.030;2023-11-19T05:58:41;16.23;;;10.70;;
21315;SDS011;10817;55.820;13.030;2023-11-19T06:01:10;16.50;;;10.00;;
21315;SDS011;10817;55.820;13.030;2023-11-19T06:03:37;17.95;;;10.40;;
21315;SDS011;10817;55.820;13.030;2023-11-19T06:06:04;22.20;;;11.60;;
21315;SDS011;10817;55.820;13.030;2023-11-19T06:08:32;24.40;;;11.82;;
21315;SDS011;10817;55.820;13.030;2023-11-19T06:10:59;19.83;;;11.70;;
21315;SDS011;10817;55.820;13.030;2023-11-19T06:13:29;20.08;;;11.60;;
21315;SDS011;10817;55.820;13.030;2023-11-19T06:15:56;22.98;;;12.57;;
21315;SDS011;10817;55.820;13.030;2023-11-19T06:18:23;22.90;;;10.98;;
21315;SDS011;10817;55.820;13.030;2023-11-19T06:20:50;23.33;;;12.93;;
21315;SDS011;10817;55.820;13.030;2023-11-19T06:23:23;21.38;;;12.27;;
21315;SDS011;10817;55.820;13.030;2023-11-19T06:25:51;23.90;;;12.93;;
21315;SDS011;10817;55.820;13.030;2023-11-19T06:28:18;23.25;;;12.45;;
21315;SDS011;10817;55.820;13.030;2023-11-19T06:30:45;19.67;;;12.23;;
21315;SDS011;10817;55.820;13.030;2023-11-19T06:33:12;20.67;;;12.85;;
21315;SDS011;10817;55.820;13.030;2023-11-19T06:35:39;20.10;;;12.95;;
21315;SDS011;10817;55.820;13.030;2023-11-19T06:38:06;20.40;;;12.85;;
21315;SDS011;10817;55.820;13.030;2023-11-19T06:40:33;23.85;;;13.35;;
21315;SDS011;10817;55.820;13.030;2023-11-19T06:43:02;27.92;;;13.63;;
21315;SDS011;10817;55.820;13.030;2023-11-19T06:45:30;27.20;;;14.60;;
21315;SDS011;10817;55.820;13.030;2023-11-19T06:47:56;23.05;;;13.90;;
21315;SDS011;10817;55.820;13.030;2023-11-19T06:50:24;24.25;;;14.25;;
21315;SDS011;10817;55.820;13.030;2023-11-19T06:52:51;27.85;;;13.77;;
21315;SDS011;10817;55.820;13.030;2023-11-19T06:55:17;22.63;;;14.18;;
21315;SDS011;10817;55.820;13.030;2023-11-19T06:57:44;24.75;;;14.52;;
21315;SDS011;10817;55.820;13.030;2023-11-19T07:00:13;22.58;;;13.73;;
21315;SDS011;10817;55.820;13.030;2023-11-19T07:02:40;24.65;;;14.15;;
21315;SDS011;10817;55.820;13.030;2023-11-19T07:05:09;24.80;;;13.80;;
21315;SDS011;10817;55.820;13.030;2023-11-19T07:07:39;26.80;;;14.73;;
21315;SDS011;10817;55.820;13.030;2023-11-19T07:10:06;27.58;;;13.85;;
21315;SDS011;10817;55.820;13.030;2023-11-19T07:12:34;22.33;;;13.63;;
21315;SDS011;10817;55.820;13.030;2023-11-19T07:15:02;24.20;;;13.48;;
21315;SDS011;10817;55.820;13.030;2023-11-19T07:17:31;25.45;;;13.50;;
21315;SDS011;10817;55.820;13.030;2023-11-19T07:20:00;24.67;;;13.65;;
21315;SDS011;10817;55.820;13.030;2023-11-19T07:22:27;23.77;;;13.18;;
21315;SDS011;10817;55.820;13.030;2023-11-19T07:24:55;25.15;;;13.55;;
21315;SDS011;10817;55.820;13.030;2023-11-19T07:27:24;28.15;;;13.70;;
21315;SDS011;10817;55.820;13.030;2023-11-19T07:29:51;26.15;;;13.90;;
21315;SDS011;10817;55.820;13.030;2023-11-19T07:32:17;23.17;;;13.93;;
21315;SDS011;10817;55.820;13.030;2023-11-19T07:34:46;25.85;;;13.73;;
21315;SDS011;10817;55.820;13.030;2023-11-19T07:37:13;24.63;;;13.52;;
21315;SDS011;10817;55.820;13.030;2023-11-19T07:39:45;24.90;;;12.73;;
21315;SDS011;10817;55.820;13.030;2023-11-19T07:42:12;18.83;;;10.80;;
21315;SDS011;10817;55.820;13.030;2023-11-19T07:44:39;19.92;;;10.75;;
21315;SDS011;10817;55.820;13.030;2023-11-19T07:47:13;19.02;;;10.27;;
21315;SDS011;10817;55.820;13.030;2023-11-19T07:49:43;15.48;;;9.50;;
21315;SDS011;10817;55.820;13.030;2023-11-19T07:52:11;16.33;;;9.32;;
21315;SDS011;10817;55.820;13.030;2023-11-19T07:54:45;19.98;;;9.93;;
21315;SDS011;10817;55.820;13.030;2023-11-19T07:57:20;12.98;;;8.85;;
21315;SDS011;10817;55.820;13.030;2023-11-19T07:59:49;19.83;;;9.40;;
21315;SDS011;10817;55.820;13.030;2023-11-19T08:02:16;15.40;;;8.60;;
21315;SDS011;10817;55.820;13.030;2023-11-19T08:04:49;15.63;;;8.98;;
21315;SDS011;10817;55.820;13.030;2023-11-19T08:07:18;16.30;;;8.57;;
21315;SDS011;10817;55.820;13.030;2023-11-19T08:09:45;18.20;;;9.80;;
21315;SDS011;10817;55.820;13.030;2023-11-19T08:12:15;14.70;;;9.32;;
21315;SDS011;10817;55.820;13.030;2023-11-19T08:14:43;14.45;;;8.15;;
21315;SDS011;10817;55.820;13.030;2023-11-19T08:17:10;13.57;;;8.77;;
21315;SDS011;10817;55.820;13.030;2023-11-19T08:19:39;14.77;;;8.65;;
21315;SDS011;10817;55.820;13.030;2023-11-19T08:22:06;17.77;;;9.10;;
21315;SDS011;10817;55.820;13.030;2023-11-19T08:24:37;15.20;;;8.18;;
21315;SDS011;10817;55.820;13.030;2023-11-19T08:27:04;15.63;;;8.20;;
21315;SDS011;10817;55.820;13.030;2023-11-19T08:29:37;11.73;;;7.15;;
21315;SDS011;10817;55.820;13.030;2023-11-19T08:32:13;11.27;;;7.07;;
21315;SDS011;10817;55.820;13.030;2023-11-19T08:34:40;15.60;;;7.40;;
21315;SDS011;10817;55.820;13.030;2023-11-19T08:37:07;11.77;;;7.75;;
21315;SDS011;10817;55.820;13.030;2023-11-19T08:39:38;13.48;;;6.32;;
21315;SDS011;10817;55.820;13.030;2023-11-19T08:42:06;13.88;;;6.78;;
21315;SDS011;10817;55.820;13.030;2023-11-19T08:44:33;13.88;;;6.95;;
21315;SDS011;10817;55.820;13.030;2023-11-19T08:47:03;11.00;;;5.93;;
21315;SDS011;10817;55.820;13.030;2023-11-19T08:49:35;9.77;;;5.60;;
21315;SDS011;10817;55.820;13.030;2023-11-19T08:52:02;9.38;;;5.38;;
21315;SDS011;10817;55.820;13.030;2023-11-19T08:54:29;8.30;;;4.63;;
21315;SDS011;10817;55.820;13.030;2023-11-19T08:56:57;14.75;;;5.53;;
21315;SDS011;10817;55.820;13.030;2023-11-19T08:59:24;8.32;;;5.25;;
21315;SDS011;10817;55.820;13.030;2023-11-19T09:01:51;11.23;;;5.28;;
21315;SDS011;10817;55.820;13.030;2023-11-19T09:04:18;10.65;;;5.40;;
21315;SDS011;10817;55.820;13.030;2023-11-19T09:06:47;8.48;;;5.00;;
21315;SDS011;10817;55.820;13.030;2023-11-19T09:09:14;8.27;;;4.88;;
21315;SDS011;10817;55.820;13.030;2023-11-19T09:11:41;8.95;;;4.68;;
21315;SDS011;10817;55.820;13.030;2023-11-19T09:14:09;4.88;;;3.33;;
21315;SDS011;10817;55.820;13.030;2023-11-19T09:16:36;5.43;;;3.72;;
21315;SDS011;10817;55.820;13.030;2023-11-19T09:19:03;8.48;;;3.33;;
21315;SDS011;10817;55.820;13.030;2023-11-19T09:21:30;6.32;;;3.30;;
21315;SDS011;10817;55.820;13.030;2023-11-19T09:23:57;6.45;;;3.20;;
21315;SDS011;10817;55.820;13.030;2023-11-19T09:26:24;4.78;;;2.78;;
21315;SDS011;10817;55.820;13.030;2023-11-19T09:28:51;6.03;;;2.80;;
21315;SDS011;10817;55.820;13.030;2023-11-19T09:31:19;7.97;;;3.63;;
21315;SDS011;10817;55.820;13.030;2023-11-19T09:33:46;5.60;;;2.67;;
21315;SDS011;10817;55.820;13.030;2023-11-19T09:36:12;6.78;;;2.78;;
21315;SDS011;10817;55.820;13.030;2023-11-19T09:38:40;4.63;;;2.95;;
21315;SDS011;10817;55.820;13.030;2023-11-19T09:41:06;3.15;;;2.70;;
21315;SDS011;10817;55.820;13.030;2023-11-19T09:43:34;6.43;;;2.80;;
21315;SDS011;10817;55.820;13.030;2023-11-19T09:46:03;4.05;;;3.00;;
21315;SDS011;10817;55.820;13.030;2023-11-19T09:48:33;5.00;;;3.20;;
21315;SDS011;10817;55.820;13.030;2023-11-19T09:51:02;5.32;;;3.45;;
21315;SDS011;10817;55.820;13.030;2023-11-19T09:53:30;7.93;;;3.63;;
21315;SDS011;10817;55.820;13.030;2023-11-19T09:55:57;5.85;;;3.13;;
21315;SDS011;10817;55.820;13.030;2023-11-19T09:58:28;5.20;;;3.30;;
21315;SDS011;10817;55.820;13.030;2023-11-19T10:00:55;8.82;;;3.42;;
21315;SDS011;10817;55.820;13.030;2023-11-19T10:03:24;5.38;;;3.55;;
21315;SDS011;10817;55.820;13.030;2023-11-19T10:05:54;6.20;;;3.63;;
21315;SDS011;10817;55.820;13.030;2023-11-19T10:08:22;7.18;;;3.38;;
21315;SDS011;10817;55.820;13.030;2023-11-19T10:10:49;4.45;;;3.70;;
21315;SDS011;10817;55.820;13.030;2023-11-19T10:13:17;6.82;;;3.88;;
21315;SDS011;10817;55.820;13.030;2023-11-19T10:15:44;5.50;;;3.67;;
21315;SDS011;10817;55.820;13.030;2023-11-19T10:18:11;6.45;;;4.13;;
21315;SDS011;10817;55.820;13.030;2023-11-19T10:20:40;5.80;;;4.15;;
21315;SDS011;10817;55.820;13.030;2023-11-19T10:23:10;6.80;;;4.40;;
21315;SDS011;10817;55.820;13.030;2023-11-19T10:25:37;7.78;;;4.70;;
21315;SDS011;10817;55.820;13.030;2023-11-19T10:28:04;7.28;;;3.80;;
21315;SDS011;10817;55.820;13.030;2023-11-19T10:30:30;7.03;;;3.97;;
21315;SDS011;10817;55.820;13.030;2023-11-19T10:33:02;5.82;;;3.65;;
21315;SDS011;10817;55.820;13.030;2023-11-19T10:35:31;6.97;;;4.65;;
21315;SDS011;10817;55.820;13.030;2023-11-19T10:37:58;9.23;;;4.35;;
21315;SDS011;10817;55.820;13.030;2023-11-19T10:40:40;7.93;;;4.68;;
21315;SDS011;10817;55.820;13.030;2023-11-19T10:43:07;6.30;;;3.78;;
21315;SDS011;10817;55.820;13.030;2023-11-19T10:45:34;3.88;;;3.13;;
21315;SDS011;10817;55.820;13.030;2023-11-19T10:48:02;6.00;;;3.00;;
21315;SDS011;10817;55.820;13.030;2023-11-19T10:50:31;5.80;;;3.03;;
21315;SDS011;10817;55.820;13.030;2023-11-19T10:52:59;4.43;;;2.78;;
21315;SDS011;10817;55.820;13.030;2023-11-19T10:55:27;6.72;;;3.08;;
21315;SDS011;10817;55.820;13.030;2023-11-19T10:57:59;3.42;;;2.38;;
21315;SDS011;10817;55.820;13.030;2023-11-19T11:00:29;3.38;;;1.80;;
21315;SDS011;10817;55.820;13.030;2023-11-19T11:03:00;3.10;;;2.10;;
21315;SDS011;10817;55.820;13.030;2023-11-19T11:05:29;3.03;;;2.10;;
21315;SDS011;10817;55.820;13.030;2023-11-19T11:07:58;3.70;;;1.80;;
21315;SDS011;10817;55.820;13.030;2023-11-19T11:10:27;2.65;;;1.85;;
21315;SDS011;10817;55.820;13.030;2023-11-19T11:13:00;4.22;;;2.00;;
21315;SDS011;10817;55.820;13.030;2023-11-19T11:15:29;4.70;;;2.17;;
21315;SDS011;10817;55.820;13.030;2023-11-19T11:17:59;2.60;;;1.80;;
21315;SDS011;10817;55.820;13.030;2023-11-19T11:20:28;3.95;;;2.05;;
21315;SDS011;10817;55.820;13.030;2023-11-19T11:22:59;6.82;;;2.25;;
21315;SDS011;10817;55.820;13.030;2023-11-19T11:25:58;3.40;;;2.47;;
21315;SDS011;10817;55.820;13.030;2023-11-19T11:28:39;3.58;;;2.40;;
21315;SDS011;10817;55.820;13.030;2023-11-19T11:31:15;2.47;;;2.13;;
21315;SDS011;10817;55.820;13.030;2023-11-19T11:37:06;5.32;;;2.33;;
21315;SDS011;10817;55.820;13.030;2023-11-19T11:39:43;4.78;;;2.35;;
21315;SDS011;10817;55.820;13.030;2023-11-19T11:42:31;4.90;;;2.40;;
21315;SDS011;10817;55.820;13.030;2023-11-19T11:45:01;4.25;;;2.30;;
21315;SDS011;10817;55.820;13.030;2023-11-19T11:50:36;4.78;;;2.38;;
21315;SDS011;10817;55.820;13.030;2023-11-19T11:53:23;6.28;;;2.78;;
21315;SDS011;10817;55.820;13.030;2023-11-19T11:55:54;7.22;;;2.72;;
21315;SDS011;10817;55.820;13.030;2023-11-19T11:58:31;4.28;;;2.90;;
21315;SDS011;10817;55.820;13.030;2023-11-19T12:01:00;6.00;;;3.30;;
21315;SDS011;10817;55.820;13.030;2023-11-19T12:03:31;5.55;;;2.70;;
21315;SDS011;10817;55.820;13.030;2023-11-19T12:05:58;3.75;;;3.10;;
21315;SDS011;10817;55.820;13.030;2023-11-19T12:08:26;7.47;;;3.25;;
21315;SDS011;10817;55.820;13.030;2023-11-19T12:10:55;4.82;;;2.90;;
21315;SDS011;10817;55.820;13.030;2023-11-19T12:13:42;3.55;;;2.70;;
21315;SDS011;10817;55.820;13.030;2023-11-19T12:16:14;4.55;;;2.92;;
21315;SDS011;10817;55.820;13.030;2023-11-19T12:18:41;5.22;;;2.90;;
21315;SDS011;10817;55.820;13.030;2023-11-19T12:21:08;3.47;;;2.63;;
21315;SDS011;10817;55.820;13.030;2023-11-19T12:23:45;4.40;;;2.78;;
21315;SDS011;10817;55.820;13.030;2023-11-19T12:26:21;5.18;;;2.92;;
21315;SDS011;10817;55.820;13.030;2023-11-19T12:28:57;4.45;;;2.55;;
21315;SDS011;10817;55.820;13.030;2023-11-19T12:31:26;4.10;;;2.70;;
21315;SDS011;10817;55.820;13.030;2023-11-19T12:33:53;4.22;;;2.40;;
21315;SDS011;10817;55.820;13.030;2023-11-19T12:36:20;5.55;;;2.83;;
21315;SDS011;10817;55.820;13.030;2023-11-19T12:38:48;4.45;;;2.50;;
21315;SDS011;10817;55.820;13.030;2023-11-19T12:41:16;3.50;;;2.70;;
21315;SDS011;10817;55.820;13.030;2023-11-19T12:43:45;3.28;;;2.60;;
21315;SDS011;10817;55.820;13.030;2023-11-19T12:46:22;5.32;;;2.83;;
21315;SDS011;10817;55.820;13.030;2023-11-19T12:48:50;4.00;;;2.70;;
21315;SDS011;10817;55.820;13.030;2023-11-19T12:51:18;6.50;;;2.80;;
21315;SDS011;10817;55.820;13.030;2023-11-19T12:53:49;3.92;;;2.88;;
21315;SDS011;10817;55.820;13.030;2023-11-19T12:56:19;4.97;;;3.58;;
21315;SDS011;10817;55.820;13.030;2023-11-19T12:58:46;6.22;;;3.40;;
21315;SDS011;10817;55.820;13.030;2023-11-19T13:01:15;4.22;;;3.22;;
21315;SDS011;10817;55.820;13.030;2023-11-19T13:03:44;10.13;;;3.55;;
21315;SDS011;10817;55.820;13.030;2023-11-19T13:06:13;4.88;;;3.30;;
21315;SDS011;10817;55.820;13.030;2023-11-19T13:08:44;4.20;;;3.50;;
21315;SDS011;10817;55.820;13.030;2023-11-19T13:11:30;9.27;;;4.03;;
21315;SDS011;10817;55.820;13.030;2023-11-19T13:13:56;6.80;;;3.25;;
21315;SDS011;10817;55.820;13.030;2023-11-19T13:16:24;4.20;;;3.33;;
21315;SDS011;10817;55.820;13.030;2023-11-19T13:18:51;5.10;;;3.70;;
21315;SDS011;10817;55.820;13.030;2023-11-19T13:21:20;12.40;;;3.72;;
21315;SDS011;10817;55.820;13.030;2023-11-19T13:23:46;6.53;;;3.72;;
21315;SDS011;10817;55.820;13.030;2023-11-19T13:26:13;6.03;;;3.90;;
21315;SDS011;10817;55.820;13.030;2023-11-19T13:28:40;7.88;;;4.00;;
21315;SDS011;10817;55.820;13.030;2023-11-19T13:31:07;4.90;;;3.95;;
21315;SDS011;10817;55.820;13.030;2023-11-19T13:33:35;7.40;;;4.30;;
21315;SDS011;10817;55.820;13.030;2023-11-19T13:36:02;8.30;;;3.90;;
21315;SDS011;10817;55.820;13.030;2023-11-19T13:38:34;5.75;;;4.18;;
21315;SDS011;10817;55.820;13.030;2023-11-19T13:41:01;10.38;;;4.22;;
21315;SDS011;10817;55.820;13.030;2023-11-19T13:43:29;10.65;;;5.13;;
21315;SDS011;10817;55.820;13.030;2023-11-19T13:45:57;15.18;;;5.68;;
21315;SDS011;10817;55.820;13.030;2023-11-19T13:48:24;9.98;;;5.53;;
21315;SDS011;10817;55.820;13.030;2023-11-19T13:50:51;6.60;;;5.18;;
21315;SDS011;10817;55.820;13.030;2023-11-19T13:53:18;13.57;;;6.63;;
21315;SDS011;10817;55.820;13.030;2023-11-19T13:55:47;7.03;;;5.57;;
21315;SDS011;10817;55.820;13.030;2023-11-19T13:58:14;10.02;;;6.05;;
21315;SDS011;10817;55.820;13.030;2023-11-19T14:00:41;9.00;;;5.75;;
21315;SDS011;10817;55.820;13.030;2023-11-19T14:03:10;13.15;;;6.35;;
21315;SDS011;10817;55.820;13.030;2023-11-19T14:05:37;8.88;;;6.05;;
21315;SDS011;10817;55.820;13.030;2023-11-19T14:08:10;9.60;;;6.85;;
21315;SDS011;10817;55.820;13.030;2023-11-19T14:10:42;12.05;;;6.85;;
21315;SDS011;10817;55.820;13.030;2023-11-19T14:13:46;10.70;;;7.03;;
21315;SDS011;10817;55.820;13.030;2023-11-19T14:16:16;13.70;;;7.35;;
21315;SDS011;10817;55.820;13.030;2023-11-19T14:18:50;15.80;;;7.05;;
21315;SDS011;10817;55.820;13.030;2023-11-19T14:25:18;13.25;;;8.25;;
21315;SDS011;10817;55.820;13.030;2023-11-19T14:27:46;13.35;;;8.70;;
21315;SDS011;10817;55.820;13.030;2023-11-19T14:30:19;16.52;;;8.20;;
21315;SDS011;10817;55.820;13.030;2023-11-19T14:32:45;10.75;;;7.68;;
21315;SDS011;10817;55.820;13.030;2023-11-19T14:35:13;13.52;;;8.13;;
21315;SDS011;10817;55.820;13.030;2023-11-19T14:37:40;17.08;;;8.32;;
21315;SDS011;10817;55.820;13.030;2023-11-19T14:40:07;15.85;;;8.85;;
21315;SDS011;10817;55.820;13.030;2023-11-19T14:42:36;15.90;;;8.25;;
21315;SDS011;10817;55.820;13.030;2023-11-19T14:45:04;10.18;;;7.93;;
21315;SDS011;10817;55.820;13.030;2023-11-19T14:47:34;13.32;;;8.00;;
21315;SDS011;10817;55.820;13.030;2023-11-19T14:50:00;12.40;;;8.40;;
21315;SDS011;10817;55.820;13.030;2023-11-19T14:52:28;13.25;;;8.02;;
21315;SDS011;10817;55.820;13.030;2023-11-19T14:54:55;18.00;;;9.45;;
21315;SDS011;10817;55.820;13.030;2023-11-19T14:57:21;17.65;;;8.45;;